Time;durP1;ratioP1;P1;durP2;ratioP2;P2;SDS_P1;SDS_P2;PMS_P1;PMS_P2;Temp;Humidity;BMP_temperature;BMP_pressure;BME280_temperature;BME280_humidity;BME280_pressure;Samples;Min_cycle;Max_cycle;Signal;HPM_P1;HPM_P2
2022/06/01 00:00:10;;;;;;;2.52;2.17;;;;;;;14.81;76.86;100085.33;1701602;82;21155;-83
2022/06/01 00:02:38;;;;;;;3.37;2.35;;;;;;;14.79;76.76;100080.17;1693979;84;21046;-81
2022/06/01 00:05:07;;;;;;;2.25;2.10;;;;;;;14.76;76.84;100078.02;1674854;85;21082;-80
2022/06/01 00:07:35;;;;;;;2.33;2.20;;;;;;;14.73;76.88;100070.94;1674568;85;21509;-80
2022/06/01 00:10:01;;;;;;;2.27;1.98;;;;;;;14.71;77.02;100071.77;1667641;84;21432;-77
2022/06/01 00:12:29;;;;;;;3.27;2.60;;;;;;;14.73;77.04;100070.41;1673878;85;21071;-78
2022/06/01 00:14:56;;;;;;;2.00;1.87;;;;;;;14.73;76.98;100067.70;1674552;85;21546;-77
2022/06/01 00:17:24;;;;;;;2.30;2.10;;;;;;;14.73;76.80;100066.88;1661436;84;21038;-80
2022/06/01 00:19:51;;;;;;;4.47;2.27;;;;;;;14.70;76.78;100072.84;1691638;84;21091;-87
2022/06/01 00:22:18;;;;;;;2.47;2.02;;;;;;;14.67;76.92;100068.79;1673370;85;21160;-84
2022/06/01 00:24:45;;;;;;;4.37;2.92;;;;;;;14.68;76.95;100070.93;1674389;85;21014;-86
2022/06/01 00:27:13;;;;;;;2.62;2.42;;;;;;;14.66;76.94;100070.41;1691113;84;21065;-77
2022/06/01 00:29:40;;;;;;;2.85;2.22;;;;;;;14.65;76.97;100067.41;1691241;84;21080;-78
2022/06/01 00:32:11;;;;;;;6.05;2.10;;;;;;;14.62;76.80;100069.31;1666983;84;21108;-74
2022/06/01 00:34:37;;;;;;;6.45;2.35;;;;;;;14.61;76.91;100066.33;1641916;86;21817;-72
2022/06/01 00:37:04;;;;;;;3.33;2.40;;;;;;;14.62;76.98;100072.02;1658152;86;21000;-76
2022/06/01 00:39:32;;;;;;;3.47;2.10;;;;;;;14.61;76.76;100073.91;1689693;84;21198;-75
2022/06/01 00:42:18;;;;;;;2.58;2.42;;;;;;;14.60;76.59;100075.52;1665624;85;21015;-77
2022/06/01 00:44:47;;;;;;;2.70;2.50;;;;;;;14.60;76.54;100082.29;1663168;85;21121;-79
2022/06/01 00:47:16;;;;;;;2.65;2.45;;;;;;;14.57;76.55;100083.65;1674719;84;21112;-73
2022/06/01 00:49:56;;;;;;;2.98;2.40;;;;;;;14.56;76.63;100081.20;1674917;85;20923;-76
2022/06/01 00:52:35;;;;;;;3.72;2.27;;;;;;;14.51;76.98;100085.24;1674106;85;21082;-71
2022/06/01 00:54:50;;;;;;;2.40;2.20;;;;;;;14.48;77.14;100080.38;1671486;85;21065;-72
2022/06/01 00:57:17;;;;;;;2.20;2.10;;;;;;;14.50;77.21;100078.20;1669112;84;21122;-74
2022/06/01 00:59:44;;;;;;;3.50;2.45;;;;;;;14.54;77.13;100081.99;1667247;85;21262;-73
2022/06/01 01:02:10;;;;;;;6.35;2.70;;;;;;;14.51;77.04;100075.23;1666670;85;21574;-73
2022/06/01 01:04:38;;;;;;;3.08;2.83;;;;;;;14.48;77.12;100072.25;1663876;86;21017;-73
2022/06/01 01:07:07;;;;;;;3.45;2.15;;;;;;;14.44;77.36;100073.84;1696436;84;21015;-73
2022/06/01 01:09:35;;;;;;;3.08;2.77;;;;;;;14.43;77.45;100077.65;1689412;84;20991;-74
2022/06/01 01:12:06;;;;;;;2.50;2.30;;;;;;;14.43;77.40;100073.59;1690965;84;21725;-73
2022/06/01 01:14:37;;;;;;;6.00;2.47;;;;;;;14.41;77.29;100076.55;1668153;85;21504;-72
2022/06/01 01:17:05;;;;;;;2.55;2.35;;;;;;;14.40;77.28;100074.37;1685643;84;21046;-74
2022/06/01 01:19:42;;;;;;;10.72;3.35;;;;;;;14.41;77.24;100067.08;1696077;84;21042;-72
2022/06/01 01:22:30;;;;;;;2.60;2.40;;;;;;;14.41;77.10;100072.48;1695477;84;21043;-73
2022/06/01 01:25:22;;;;;;;6.35;2.40;;;;;;;14.40;76.76;100069.50;1696078;84;21523;-75
2022/06/01 01:27:54;;;;;;;7.40;2.60;;;;;;;14.41;76.47;100072.48;1700206;84;21061;-75
2022/06/01 01:30:45;;;;;;;2.55;2.35;;;;;;;14.38;76.27;100075.20;1708378;83;21052;-73
2022/06/01 01:33:21;;;;;;;2.90;2.70;;;;;;;14.36;76.01;100079.23;1693792;83;21014;-73
2022/06/01 01:36:01;;;;;;;3.05;2.35;;;;;;;14.33;75.80;100078.39;1693956;84;21004;-73
2022/06/01 01:38:54;;;;;;;3.08;2.45;;;;;;;14.27;75.27;100077.55;1668162;85;21172;-71
2022/06/01 01:41:45;;;;;;;2.98;2.37;;;;;;;14.27;75.15;100072.14;1642497;84;21046;-73
2022/06/01 01:44:28;;;;;;;2.20;2.10;;;;;;;14.29;75.17;100081.36;1636353;86;21611;-73
2022/06/01 01:46:56;;;;;;;2.40;2.20;;;;;;;14.32;75.05;100075.41;1696303;84;21015;-71
2022/06/01 01:49:25;;;;;;;2.60;2.40;;;;;;;14.30;74.68;100076.20;1696388;84;21023;-73
2022/06/01 01:51:55;;;;;;;2.72;2.52;;;;;;;14.29;74.73;100075.95;1689110;84;21798;-73
2022/06/01 01:54:48;;;;;;;7.28;2.37;;;;;;;14.26;74.72;100084.03;1692585;84;20939;-73
2022/06/01 01:57:50;;;;;;;5.10;2.30;;;;;;;14.25;74.81;100074.28;1679106;84;21629;-72
2022/06/01 02:00:22;;;;;;;2.50;2.30;;;;;;;14.27;74.69;100076.73;1682921;83;21117;-73
2022/06/01 02:03:00;;;;;;;2.50;2.30;;;;;;;14.25;74.48;100070.77;1694373;84;21035;-73
2022/06/01 02:06:03;;;;;;;3.00;2.70;;;;;;;14.24;74.54;100075.92;1662902;86;21917;-73
2022/06/01 02:08:38;;;;;;;2.45;2.25;;;;;;;14.23;74.53;100075.10;1674372;85;21086;-72
2022/06/01 02:14:21;;;;;;;3.05;2.75;;;;;;;14.12;74.94;100073.95;1669751;84;21031;-72
2022/06/01 02:16:54;;;;;;;2.55;2.35;;;;;;;14.08;75.10;100070.98;1672873;85;20927;-73
2022/06/01 02:19:25;;;;;;;2.27;2.15;;;;;;;14.08;75.34;100066.10;1673914;84;21109;-73
2022/06/01 02:21:54;;;;;;;2.65;2.45;;;;;;;14.09;75.45;100066.38;1679365;84;21051;-73
2022/06/01 02:24:22;;;;;;;2.85;2.65;;;;;;;14.13;75.49;100067.48;1639907;86;20983;-73
2022/06/01 02:26:50;;;;;;;3.72;2.50;;;;;;;14.16;75.37;100069.11;1676406;84;21040;-73
2022/06/01 02:29:42;;;;;;;4.80;2.35;;;;;;;14.22;75.23;100068.06;1673890;85;21617;-73
2022/06/01 02:32:09;;;;;;;3.27;2.75;;;;;;;14.25;75.02;100059.94;1702141;84;21879;-73
2022/06/01 02:34:37;;;;;;;3.65;3.35;;;;;;;14.26;74.87;100060.22;1699752;82;21462;-73
2022/06/01 02:37:05;;;;;;;2.30;2.20;;;;;;;14.25;74.84;100059.41;1665433;85;21548;-73
2022/06/01 02:39:31;;;;;;;4.60;2.92;;;;;;;14.27;74.85;100063.20;1672575;85;21079;-73
2022/06/01 02:42:28;;;;;;;17.50;3.55;;;;;;;14.27;74.83;100065.91;1689324;83;21472;-73
2022/06/01 02:45:04;;;;;;;5.70;2.55;;;;;;;14.25;74.94;100066.16;1650701;85;22374;-73
2022/06/01 02:47:34;;;;;;;3.72;2.58;;;;;;;14.29;74.88;100069.18;1689904;84;21087;-72
2022/06/01 02:50:01;;;;;;;2.50;2.30;;;;;;;14.30;74.60;100067.54;1704366;84;21054;-72
2022/06/01 02:52:27;;;;;;;3.30;2.72;;;;;;;14.31;74.47;100066.47;1702564;82;21078;-73
2022/06/01 02:54:54;;;;;;;2.70;2.50;;;;;;;14.31;74.38;100076.47;1717632;83;21008;-72
2022/06/01 02:57:21;;;;;;;6.58;5.80;;;;;;;14.29;74.61;100069.18;1696155;83;21151;-72
2022/06/01 02:59:47;;;;;;;3.05;2.77;;;;;;;14.28;74.67;100068.36;1700687;83;20974;-72
2022/06/01 03:02:14;;;;;;;3.55;2.65;;;;;;;14.32;74.65;100064.58;1671930;84;21109;-73
2022/06/01 03:04:42;;;;;;;3.35;2.95;;;;;;;14.34;74.56;100067.82;1676125;85;21532;-72
2022/06/01 03:07:10;;;;;;;5.10;2.42;;;;;;;14.38;74.49;100065.73;1693793;84;20978;-75
2022/06/01 03:09:37;;;;;;;3.47;2.95;;;;;;;14.45;74.27;100068.70;1691801;84;21080;-75
2022/06/01 03:12:05;;;;;;;6.12;3.35;;;;;;;14.48;74.26;100066.84;1693081;84;21007;-75
2022/06/01 03:14:34;;;;;;;5.15;2.58;;;;;;;14.48;73.99;100070.36;1669955;84;21559;-75
2022/06/01 03:17:00;;;;;;;2.60;2.40;;;;;;;14.47;74.01;100065.20;1693781;84;21054;-71
2022/06/01 03:19:26;;;;;;;2.72;2.52;;;;;;;14.49;74.10;100066.55;1693686;84;21242;-73
2022/06/01 03:21:53;;;;;;;2.90;2.67;;;;;;;14.52;74.09;100073.34;1692229;84;21611;-71
2022/06/01 03:24:20;;;;;;;3.83;3.05;;;;;;;14.55;74.02;100070.91;1649004;87;21031;-72
2022/06/01 03:26:46;;;;;;;3.17;2.62;;;;;;;14.56;74.04;100069.02;1665944;86;21590;-72
2022/06/01 03:29:14;;;;;;;4.70;2.87;;;;;;;14.58;73.81;100073.07;1662637;84;20960;-72
2022/06/01 03:31:41;;;;;;;5.03;2.98;;;;;;;14.61;73.87;100071.74;1666791;84;21074;-71
2022/06/01 03:34:10;;;;;;;4.97;2.80;;;;;;;14.63;73.99;100070.38;1693393;84;21410;-73
2022/06/01 03:36:38;;;;;;;3.33;2.90;;;;;;;14.71;74.01;100071.77;1693633;84;21031;-72
2022/06/01 03:39:06;;;;;;;3.75;3.40;;;;;;;14.75;73.86;100071.50;1693656;84;20982;-72
2022/06/01 03:41:34;;;;;;;8.58;7.67;;;;;;;14.77;73.81;100068.00;1693281;84;21074;-72
2022/06/01 03:46:47;;;;;;;5.58;4.55;;;;;;;14.82;73.64;100074.75;1692625;84;22253;-72
2022/06/01 03:49:13;;;;;;;2.85;2.47;;;;;;;14.77;73.76;100074.77;1693609;84;20972;-72
2022/06/01 03:51:41;;;;;;;2.65;2.45;;;;;;;14.73;74.05;100077.71;1692669;84;21021;-72
2022/06/01 03:54:07;;;;;;;4.65;3.33;;;;;;;14.74;74.13;100069.33;1693670;84;21091;-72
2022/06/01 03:56:34;;;;;;;3.40;3.10;;;;;;;14.77;74.14;100071.49;1692314;84;21058;-72
2022/06/01 03:59:00;;;;;;;2.85;2.55;;;;;;;14.84;74.13;100069.89;1660462;86;21279;-72
2022/06/01 04:01:28;;;;;;;3.40;3.10;;;;;;;14.86;74.10;100070.45;1668686;84;21042;-73
2022/06/01 04:03:55;;;;;;;4.92;2.90;;;;;;;14.85;74.23;100063.40;1691781;84;20936;-72
2022/06/01 04:06:21;;;;;;;6.40;3.70;;;;;;;14.89;74.34;100060.95;1706025;84;21085;-72
2022/06/01 04:08:48;;;;;;;4.03;3.65;;;;;;;14.95;74.30;100058.00;1705929;83;21164;-72
2022/06/01 04:11:16;;;;;;;3.25;3.00;;;;;;;15.04;74.30;100056.91;1704725;83;21306;-73
2022/06/01 04:13:44;;;;;;;3.42;3.20;;;;;;;15.13;74.16;100059.36;1677163;85;21016;-71
2022/06/01 04:16:11;;;;;;;8.00;6.37;;;;;;;15.20;74.02;100059.91;1706164;84;21022;-73
2022/06/01 04:18:38;;;;;;;5.85;3.92;;;;;;;15.22;73.84;100055.02;1676183;85;21035;-71
2022/06/01 04:21:06;;;;;;;7.92;5.05;;;;;;;15.23;73.61;100050.69;1706421;84;20966;-73
2022/06/01 04:23:33;;;;;;;7.50;4.95;;;;;;;15.27;73.86;100052.31;1715850;82;21162;-72
2022/06/01 04:25:59;;;;;;;5.28;3.75;;;;;;;15.32;73.78;100056.38;1703083;83;21563;-72
2022/06/01 04:28:26;;;;;;;5.70;3.02;;;;;;;15.37;73.37;100056.91;1706106;84;21061;-73
2022/06/01 04:30:53;;;;;;;2.83;2.55;;;;;;;15.44;73.22;100062.88;1681607;84;20943;-73
2022/06/01 04:33:20;;;;;;;3.95;3.65;;;;;;;15.50;73.19;100062.59;1705676;84;21661;-73
2022/06/01 04:35:47;;;;;;;4.33;3.20;;;;;;;15.57;72.96;100057.74;1705618;84;21082;-73
2022/06/01 04:38:13;;;;;;;3.35;3.08;;;;;;;15.64;72.70;100053.38;1705844;84;20963;-74
2022/06/01 04:40:47;;;;;;;5.30;3.30;;;;;;;15.70;72.66;100054.45;1705781;84;21025;-72
2022/06/01 04:43:14;;;;;;;;;;;;;;;15.75;72.63;100055.53;1694905;84;21519;-73
2022/06/01 04:45:41;;;;;;;3.08;2.85;;;;;;;15.81;72.60;100057.97;1705970;84;20201;-72
2022/06/01 04:48:07;;;;;;;9.13;6.30;;;;;;;15.87;72.72;100054.16;1706171;84;21165;-74
2022/06/01 04:50:42;;;;;;;4.08;3.67;;;;;;;15.95;72.76;100059.55;1681885;84;20977;-74
2022/06/01 04:53:04;;;;;;;5.83;4.58;;;;;;;16.02;72.48;100053.27;1716661;82;21067;-74
2022/06/01 04:55:30;;;;;;;5.92;4.70;;;;;;;16.07;72.11;100056.78;1704321;84;21036;-72
2022/06/01 04:57:57;;;;;;;3.62;3.35;;;;;;;16.16;71.81;100053.52;1695468;84;21059;-74
2022/06/01 05:00:24;;;;;;;3.70;3.40;;;;;;;16.23;72.14;100052.66;1705068;83;21204;-73
2022/06/01 05:02:52;;;;;;;3.40;3.10;;;;;;;16.29;72.16;100051.02;1699818;84;21072;-73
2022/06/01 05:05:19;;;;;;;3.17;2.83;;;;;;;16.38;72.14;100050.69;1687593;84;21528;-74
2022/06/01 05:07:45;;;;;;;3.85;3.55;;;;;;;16.47;71.97;100051.73;1687661;84;21556;-72
2022/06/01 05:10:12;;;;;;;4.00;3.60;;;;;;;16.55;71.96;100055.20;1689980;85;21134;-73
2022/06/01 05:12:39;;;;;;;4.70;3.85;;;;;;;16.66;71.82;100057.36;1675619;84;21318;-72
2022/06/01 05:15:08;;;;;;;3.80;3.50;;;;;;;16.73;71.70;100053.80;1665308;84;21052;-73
2022/06/01 05:17:35;;;;;;;8.05;4.72;;;;;;;16.83;71.56;100051.56;1664958;85;21555;-74
2022/06/01 05:20:02;;;;;;;3.85;3.58;;;;;;;16.92;71.35;100046.60;1674505;85;21199;-74
2022/06/01 05:22:29;;;;;;;4.15;3.75;;;;;;;17.03;71.25;100047.31;1625454;84;21114;-74
2022/06/01 05:24:55;;;;;;;7.50;4.85;;;;;;;17.10;71.20;100047.81;1694669;84;21642;-73
2022/06/01 05:27:22;;;;;;;4.25;3.85;;;;;;;17.19;71.19;100044.75;1675176;84;21626;-72
2022/06/01 05:29:50;;;;;;;3.45;3.20;;;;;;;17.27;71.20;100043.31;1676043;85;21042;-74
2022/06/01 05:32:17;;;;;;;4.15;3.85;;;;;;;17.37;71.33;100048.13;1676013;84;21604;-71
2022/06/01 05:34:44;;;;;;;7.33;4.55;;;;;;;17.49;71.49;100044.22;1660385;85;21133;-74
2022/06/01 05:37:11;;;;;;;4.30;3.90;;;;;;;17.58;71.45;100042.50;1662027;85;21135;-72
2022/06/01 05:39:37;;;;;;;4.53;4.03;;;;;;;17.66;71.11;100039.17;1643688;87;21066;-72
2022/06/01 05:42:05;;;;;;;3.40;3.10;;;;;;;17.74;70.82;100037.20;1670563;84;21047;-73
2022/06/01 05:44:33;;;;;;;3.62;3.33;;;;;;;17.78;70.89;100036.33;1670038;84;21018;-73
2022/06/01 05:47:02;;;;;;;4.05;3.65;;;;;;;17.83;70.92;100031.39;1694738;84;21027;-74
2022/06/01 05:49:29;;;;;;;5.03;3.40;;;;;;;17.93;71.13;100042.16;1694813;84;21223;-73
2022/06/01 05:51:55;;;;;;;4.00;3.67;;;;;;;18.04;71.01;100037.39;1688401;84;21523;-72
2022/06/01 05:54:22;;;;;;;5.97;3.42;;;;;;;18.11;70.75;100037.31;1680294;85;21023;-76
2022/06/01 05:56:48;;;;;;;7.97;4.87;;;;;;;18.18;70.89;100030.13;1651207;85;21160;-75
2022/06/01 05:59:17;;;;;;;4.65;4.25;;;;;;;18.24;71.12;100029.78;1646881;87;21544;-75
2022/06/01 06:01:44;;;;;;;4.50;4.08;;;;;;;18.32;71.08;100028.31;1675451;85;21161;-77
2022/06/01 06:04:10;;;;;;;4.55;4.15;;;;;;;18.39;71.01;100027.41;1666835;85;21359;-75
2022/06/01 06:06:37;;;;;;;8.23;4.75;;;;;;;18.44;71.07;100034.70;1673202;85;20990;-75
2022/06/01 06:09:06;;;;;;;4.12;3.83;;;;;;;18.49;71.12;100034.09;1666970;86;21615;-77
2022/06/01 06:11:36;;;;;;;4.62;3.80;;;;;;;18.52;71.37;100032.12;1668396;85;21504;-76
2022/06/01 06:14:03;;;;;;;5.10;4.03;;;;;;;18.57;71.41;100036.72;1691856;84;21142;-73
2022/06/01 06:16:35;;;;;;;5.53;4.30;;;;;;;18.64;71.50;100034.45;1695667;84;21052;-74
2022/06/01 06:19:03;;;;;;;5.72;3.90;;;;;;;18.72;71.52;100038.69;1694506;84;21413;-72
2022/06/01 06:21:31;;;;;;;4.70;4.30;;;;;;;18.81;71.44;100047.55;1694132;84;21004;-72
2022/06/01 06:24:05;;;;;;;4.22;3.92;;;;;;;18.89;71.45;100042.27;1694425;84;21062;-71
2022/06/01 06:26:34;;;;;;;5.03;4.17;;;;;;;19.00;71.35;100034.72;1663031;85;21014;-72
2022/06/01 06:29:02;;;;;;;5.42;4.05;;;;;;;19.07;71.19;100033.25;1694081;84;21079;-72
2022/06/01 06:31:29;;;;;;;5.60;4.87;;;;;;;19.13;71.28;100029.89;1675672;85;21003;-73
2022/06/01 06:33:56;;;;;;;5.12;4.40;;;;;;;19.17;71.32;100033.64;1695685;84;21094;-72
2022/06/01 06:36:24;;;;;;;6.42;4.92;;;;;;;19.18;71.19;100034.68;1667568;86;21583;-72
2022/06/01 06:38:50;;;;;;;10.65;5.55;;;;;;;19.23;71.28;100034.37;1664990;86;21133;-73
2022/06/01 06:41:16;;;;;;;7.95;5.70;;;;;;;19.26;71.55;100031.03;1666921;85;21091;-75
2022/06/01 06:43:43;;;;;;;5.58;5.08;;;;;;;19.31;71.49;100029.58;1694626;84;21043;-75
2022/06/01 06:46:13;;;;;;;13.55;5.30;;;;;;;19.36;71.49;100031.67;1696215;84;21055;-75
2022/06/01 06:48:40;;;;;;;10.45;4.80;;;;;;;19.44;71.62;100031.00;1696274;84;21011;-75
2022/06/01 06:51:08;;;;;;;6.85;5.65;;;;;;;19.53;71.44;100036.57;1696066;84;21132;-74
2022/06/01 06:53:34;;;;;;;6.97;5.17;;;;;;;19.63;71.06;100032.84;1695844;84;21034;-74
2022/06/01 06:56:03;;;;;;;6.22;5.72;;;;;;;19.70;70.84;100034.09;1693866;84;21068;-74
2022/06/01 06:58:30;;;;;;;12.45;8.18;;;;;;;19.77;70.73;100027.66;1680918;84;21515;-75
2022/06/01 07:00:57;;;;;;;9.33;6.05;;;;;;;19.84;70.87;100036.83;1696015;84;21078;-75
2022/06/01 07:03:23;;;;;;;7.42;6.12;;;;;;;19.91;70.72;100034.48;1695482;84;21219;-74
2022/06/01 07:08:34;;;;;;;10.88;7.42;;;;;;;19.98;70.21;100028.89;1694751;84;21004;-74
2022/06/01 07:11:01;;;;;;;9.63;6.62;;;;;;;20.06;70.15;100026.00;1690446;84;21110;-74
2022/06/01 07:13:28;;;;;;;7.97;6.12;;;;;;;20.06;70.15;100026.00;1668858;84;21524;-74
2022/06/01 07:16:07;;;;;;;6.65;5.95;;;;;;;20.11;70.32;100025.08;1674583;84;21537;-75
2022/06/01 07:18:36;;;;;;;7.53;6.75;;;;;;;20.16;70.07;100024.98;1693016;84;21828;-75
2022/06/01 07:21:03;;;;;;;6.55;6.03;;;;;;;20.19;69.99;100021.66;1694773;84;21015;-75
2022/06/01 07:23:29;;;;;;;7.85;5.55;;;;;;;20.20;69.96;100017.23;1695386;84;21015;-76
2022/06/01 07:25:55;;;;;;;11.38;6.17;;;;;;;20.24;70.25;100020.19;1688399;84;21063;-74
2022/06/01 07:28:22;;;;;;;6.55;5.90;;;;;;;20.30;70.26;100021.15;1638786;86;21459;-75
2022/06/01 07:30:50;;;;;;;12.10;6.95;;;;;;;20.40;70.32;100020.12;1673210;84;20935;-74
2022/06/01 07:33:17;;;;;;;7.33;6.55;;;;;;;20.50;70.59;100019.09;1691911;84;20991;-73
2022/06/01 07:35:46;;;;;;;11.57;7.42;;;;;;;20.58;70.29;100021.89;1678596;85;20945;-75
2022/06/01 07:43:42;;;;;;;10.35;6.92;;;;;;;20.75;69.17;100019.33;1702441;83;21090;-73
2022/06/01 07:46:08;;;;;;;7.53;6.37;;;;;;;20.74;69.10;100017.70;1691912;83;21082;-73
2022/06/01 07:48:35;;;;;;;9.18;6.90;;;;;;;20.77;69.28;100013.53;1648982;85;21012;-73
2022/06/01 07:51:01;;;;;;;15.20;10.05;;;;;;;20.83;69.25;100013.67;1681731;84;21661;-74
2022/06/01 07:53:28;;;;;;;22.93;19.02;;;;;;;20.88;69.34;100006.72;1668205;85;21548;-73
2022/06/01 07:55:56;;;;;;;10.98;8.83;;;;;;;20.95;68.95;100014.50;1694130;84;21006;-74
2022/06/01 07:58:23;;;;;;;10.95;8.28;;;;;;;21.02;68.88;100014.85;1695978;84;20954;-73
2022/06/01 08:00:49;;;;;;;8.20;6.80;;;;;;;21.09;68.70;100013.31;1692178;84;21035;-74
2022/06/01 08:03:17;;;;;;;8.40;6.60;;;;;;;21.20;68.74;100016.61;1654885;85;21532;-73
2022/06/01 08:05:43;;;;;;;14.20;8.15;;;;;;;21.31;68.65;100011.95;1705106;82;21227;-74
2022/06/01 08:08:10;;;;;;;10.48;7.20;;;;;;;21.40;68.83;100007.08;1695855;83;20940;-76
2022/06/01 08:10:38;;;;;;;8.93;7.85;;;;;;;21.49;68.67;100013.40;1689115;84;21004;-76
2022/06/01 08:13:11;;;;;;;16.00;9.20;;;;;;;21.51;67.83;100003.77;1673077;84;20967;-73
2022/06/01 08:15:47;;;;;;;8.18;7.08;;;;;;;21.52;67.87;100002.66;1718090;82;21622;-71
2022/06/01 08:18:17;;;;;;;8.05;6.83;;;;;;;21.57;67.63;99998.97;1693050;84;21206;-73
2022/06/01 08:20:43;;;;;;;7.90;6.97;;;;;;;21.60;67.58;100002.44;1683611;82;21035;-72
2022/06/01 08:23:10;;;;;;;13.15;6.40;;;;;;;21.68;67.49;99996.98;1667465;85;21022;-72
2022/06/01 08:25:40;;;;;;;7.55;6.85;;;;;;;21.75;67.21;99991.06;1708043;83;21063;-71
2022/06/01 08:28:07;;;;;;;6.20;5.70;;;;;;;21.80;66.44;99988.19;1676305;84;21138;-73
2022/06/01 08:30:37;;;;;;;9.58;6.80;;;;;;;21.85;66.74;99983.94;1671011;85;21143;-79
2022/06/01 08:33:05;;;;;;;13.53;6.78;;;;;;;21.94;66.96;99988.10;1705183;84;21070;-83
2022/06/01 08:35:38;;;;;;;6.35;5.83;;;;;;;22.03;66.41;99988.38;1674636;84;21107;-77
2022/06/01 08:38:05;;;;;;;9.70;5.60;;;;;;;22.12;66.38;99984.27;1695621;82;21073;-76
2022/06/01 08:40:36;;;;;;;7.75;5.80;;;;;;;22.24;65.99;99994.63;1618530;85;21067;-78
2022/06/01 08:43:09;;;;;;;6.15;5.65;;;;;;;22.33;65.48;99984.48;1648301;85;21199;-80
2022/06/01 08:45:36;;;;;;;7.30;5.85;;;;;;;22.42;65.17;99982.55;1690290;84;21258;-75
2022/06/01 08:48:04;;;;;;;6.12;5.53;;;;;;;22.47;64.81;99979.09;1702832;82;20967;-77
2022/06/01 08:50:38;;;;;;;5.75;4.95;;;;;;;22.55;64.22;99977.47;1700907;82;21342;-76
2022/06/01 08:53:06;;;;;;;5.35;4.85;;;;;;;22.60;63.50;99977.31;1675017;84;20972;-76
2022/06/01 08:55:54;;;;;;;5.45;4.95;;;;;;;22.64;63.34;99977.50;1687224;85;21104;-76
2022/06/01 08:58:40;;;;;;;7.22;6.12;;;;;;;22.66;63.27;99972.48;1693869;84;21066;-75
2022/06/01 09:01:18;;;;;;;10.45;5.70;;;;;;;22.73;63.05;99975.03;1675665;85;21003;-75
2022/06/01 09:04:14;;;;;;;7.95;4.97;;;;;;;22.80;62.38;99978.08;1686405;83;21015;-81
2022/06/01 09:06:51;;;;;;;9.40;5.25;;;;;;;22.84;62.28;99968.06;1688990;84;21568;-78
2022/06/01 09:09:39;;;;;;;7.62;4.60;;;;;;;22.95;62.40;99970.72;1672385;85;20983;-77
2022/06/01 09:12:06;;;;;;;7.87;4.90;;;;;;;23.08;62.28;99966.16;1660760;84;21079;-75
2022/06/01 09:14:36;;;;;;;6.22;5.05;;;;;;;23.23;62.18;99970.33;1644850;85;21031;-83
2022/06/01 09:17:03;;;;;;;7.05;4.92;;;;;;;23.36;61.73;99972.06;1654126;85;21512;-78
2022/06/01 09:22:38;;;;;;;6.75;4.83;;;;;;;23.49;60.81;99964.23;1673783;84;21220;-83
2022/06/01 09:25:13;;;;;;;4.85;4.42;;;;;;;23.60;58.88;99971.52;1673344;84;21003;-82
2022/06/01 09:27:47;;;;;;;7.45;4.72;;;;;;;23.53;58.42;99969.30;1651500;84;21125;-77
2022/06/01 09:30:28;;;;;;;4.87;4.40;;;;;;;23.58;59.45;99965.58;1674693;84;21035;-84
2022/06/01 09:33:26;;;;;;;5.12;4.33;;;;;;;23.63;58.99;99971.69;1665765;84;21070;-82
2022/06/01 09:36:01;;;;;;;5.92;4.42;;;;;;;23.72;58.63;99964.78;1658006;84;21147;-81
2022/06/01 09:38:53;;;;;;;5.92;4.85;;;;;;;23.78;58.17;99970.33;1690654;84;21507;-80
2022/06/01 09:41:31;;;;;;;4.58;4.12;;;;;;;23.75;57.31;99965.48;1677440;84;21031;-81
2022/06/01 09:44:02;;;;;;;9.23;5.53;;;;;;;23.73;58.06;99960.34;1672624;84;20971;-79
2022/06/01 09:46:43;;;;;;;5.45;4.58;;;;;;;23.74;57.84;99969.39;1670367;84;20981;-80
2022/06/01 09:49:31;;;;;;;11.85;4.78;;;;;;;23.81;58.55;99965.54;1687799;84;21568;-81
2022/06/01 09:52:08;;;;;;;4.95;3.85;;;;;;;23.96;58.25;99950.43;1684946;84;21047;-79
2022/06/01 09:54:39;;;;;;;9.00;4.62;;;;;;;24.10;57.00;99952.36;1697379;84;20992;-77
2022/06/01 09:57:30;;;;;;;9.50;4.30;;;;;;;24.18;56.72;99959.20;1658549;85;21623;-76
2022/06/01 10:08:30;;;;;;;7.85;5.28;;;;;;;24.78;55.34;99945.55;1691788;84;21075;-77
2022/06/01 10:11:15;;;;;;;5.87;3.98;;;;;;;24.92;54.84;99948.84;1692434;84;21111;-74
2022/06/01 10:14:03;;;;;;;7.53;6.37;;;;;;;24.99;54.79;99944.95;1674086;84;21121;-74
2022/06/01 10:16:58;;;;;;;9.43;5.05;;;;;;;25.07;54.42;99943.27;1693579;84;21968;-76
2022/06/01 10:19:35;;;;;;;6.40;4.55;;;;;;;25.04;54.27;99943.36;1693241;84;21042;-76
2022/06/01 10:22:17;;;;;;;7.85;4.03;;;;;;;25.07;54.17;99946.02;1693754;84;21034;-75
2022/06/01 10:24:52;;;;;;;7.12;4.67;;;;;;;25.16;54.05;99943.98;1693685;84;21133;-76
2022/06/01 10:27:21;;;;;;;5.60;4.28;;;;;;;25.25;53.76;99945.25;1691307;83;21059;-78
2022/06/01 10:30:13;;;;;;;5.97;3.22;;;;;;;25.33;53.52;99939.64;1686985;83;21098;-77
2022/06/01 10:32:51;;;;;;;6.12;3.67;;;;;;;25.50;52.39;99935.31;1688734;84;20911;-76
2022/06/01 10:35:46;;;;;;;4.15;3.72;;;;;;;25.54;51.69;99935.42;1664575;84;21134;-78
2022/06/01 10:38:22;;;;;;;5.03;4.42;;;;;;;25.65;52.26;99929.73;1688631;84;21369;-78
2022/06/01 10:41:06;;;;;;;5.92;4.03;;;;;;;25.87;52.22;99927.06;1693674;84;21669;-77
2022/06/01 10:43:57;;;;;;;6.62;4.05;;;;;;;25.93;51.34;99924.31;1693588;84;21213;-77
2022/06/01 10:46:35;;;;;;;11.55;4.42;;;;;;;25.90;50.78;99918.13;1693576;84;21039;-77
2022/06/01 10:49:31;;;;;;;7.85;4.37;;;;;;;25.87;50.69;99924.31;1693329;83;21567;-78
2022/06/01 10:52:12;;;;;;;7.05;4.03;;;;;;;25.98;50.82;99911.67;1693937;84;21050;-82
2022/06/01 10:54:50;;;;;;;7.00;4.70;;;;;;;26.10;49.52;99908.87;1693688;84;20966;-80
2022/06/01 10:57:20;;;;;;;7.25;5.30;;;;;;;25.91;49.54;99913.62;1693405;84;21113;-76
2022/06/01 10:59:48;;;;;;;4.95;4.05;;;;;;;25.68;50.10;99905.61;1677933;84;21112;-82
2022/06/01 11:02:32;;;;;;;4.87;4.37;;;;;;;25.72;50.47;99902.39;1694213;84;21066;-79
2022/06/01 11:05:32;;;;;;;8.23;5.00;;;;;;;25.73;50.00;99897.11;1682033;84;21028;-88
2022/06/01 11:08:21;;;;;;;22.95;5.75;;;;;;;25.76;49.92;99899.73;1694060;84;21019;-86
2022/06/01 11:11:03;;;;;;;10.23;4.37;;;;;;;25.65;50.72;99891.73;1669498;84;20972;-85
2022/06/01 11:13:54;;;;;;;5.97;3.83;;;;;;;25.72;50.75;99886.42;1648441;87;21036;-82
2022/06/01 11:16:58;;;;;;;11.63;5.58;;;;;;;25.87;49.97;99885.16;1649348;85;21082;-81
2022/06/01 11:19:54;;;;;;;5.92;3.80;;;;;;;25.92;48.08;99883.53;1666340;85;21568;-81
2022/06/01 11:23:13;;;;;;;6.00;3.90;;;;;;;25.83;48.56;99875.98;1649367;87;21138;-86
2022/06/01 11:26:02;;;;;;;5.87;3.62;;;;;;;25.89;48.81;99877.92;1637968;87;21790;-83
2022/06/01 11:29:10;;;;;;;7.15;4.35;;;;;;;25.90;47.82;99880.92;1650247;84;20984;-92
2022/06/01 11:31:37;;;;;;;7.00;4.20;;;;;;;25.92;48.36;99875.27;1693775;84;21051;-80
2022/06/01 11:34:12;;;;;;;4.62;4.22;;;;;;;25.96;47.83;99876.17;1693920;84;21516;-79
2022/06/01 11:36:57;;;;;;;3.58;3.27;;;;;;;26.03;47.68;99880.54;1694303;84;21078;-77
2022/06/01 11:39:54;;;;;;;7.92;4.22;;;;;;;26.15;47.51;99870.03;1683064;84;21547;-82
2022/06/01 11:42:59;;;;;;;4.67;4.15;;;;;;;26.30;47.30;99872.66;1666518;86;21582;-80
2022/06/01 11:45:46;;;;;;;5.58;3.60;;;;;;;26.38;46.92;99869.75;1692473;84;21030;-77
2022/06/01 11:48:15;;;;;;;7.40;3.47;;;;;;;26.35;46.47;99869.66;1693947;84;21000;-78
2022/06/01 11:50:56;;;;;;;5.42;2.87;;;;;;;26.48;45.65;99869.25;1678562;84;21089;-84
2022/06/01 11:53:58;;;;;;;7.65;3.42;;;;;;;26.62;44.64;99874.36;1691923;84;22119;-84
2022/06/01 11:56:51;;;;;;;11.40;4.72;;;;;;;26.70;45.80;99869.28;1693916;84;20967;-84
2022/06/01 11:59:29;;;;;;;5.25;3.60;;;;;;;26.95;46.21;99867.22;1691458;84;20983;-82
2022/06/01 12:02:07;;;;;;;7.95;3.15;;;;;;;27.21;45.46;99868.86;1693895;84;21003;-93
2022/06/01 12:04:52;;;;;;;6.83;4.47;;;;;;;27.44;44.20;99870.98;1686388;84;20989;-95
2022/06/01 12:07:35;;;;;;;8.05;3.92;;;;;;;27.58;43.54;99870.77;1647410;84;21284;-91
2022/06/01 12:10:09;;;;;;;7.15;3.67;;;;;;;27.77;43.31;99860.34;1668874;84;28674;-87
2022/06/01 12:12:43;;;;;;;4.12;3.10;;;;;;;27.94;42.49;99850.86;1651969;84;21611;-83
2022/06/01 12:15:32;;;;;;;2.92;2.47;;;;;;;28.02;42.35;99850.64;1671407;84;21034;-77
2022/06/01 12:18:15;;;;;;;5.72;3.47;;;;;;;28.07;42.16;99852.31;1658731;85;21028;-73